sensor_id;sensor_type;location;lat;lon;timestamp;temperature;humidity
16283;DHT22;8249;48.708;9.030;2023-04-25T00:02:01;8.20;99.90
16283;DHT22;8249;48.708;9.030;2023-04-25T00:04:29;8.20;99.90
16283;DHT22;8249;48.708;9.030;2023-04-25T00:06:59;8.20;99.90
16283;DHT22;8249;48.708;9.030;2023-04-25T00:09:28;8.20;99.90
16283;DHT22;8249;48.708;9.030;2023-04-25T00:11:55;8.10;99.90
16283;DHT22;8249;48.708;9.030;2023-04-25T00:14:22;8.10;99.90
16283;DHT22;8249;48.708;9.030;2023-04-25T00:16:49;8.10;99.90
16283;DHT22;8249;48.708;9.030;2023-04-25T00:19:17;8.10;99.90
16283;DHT22;8249;48.708;9.030;2023-04-25T00:21:44;8.10;99.90
16283;DHT22;8249;48.708;9.030;2023-04-25T00:24:11;8.10;99.90
16283;DHT22;8249;48.708;9.030;2023-04-25T00:26:40;8.10;99.90
16283;DHT22;8249;48.708;9.030;2023-04-25T00:29:07;8.10;99.90
16283;DHT22;8249;48.708;9.030;2023-04-25T00:31:34;8.10;99.90
16283;DHT22;8249;48.708;9.030;2023-04-25T00:34:01;8.10;99.90
16283;DHT22;8249;48.708;9.030;2023-04-25T00:36:28;8.10;99.90
16283;DHT22;8249;48.708;9.030;2023-04-25T00:38:55;8.10;99.90
16283;DHT22;8249;48.708;9.030;2023-04-25T00:41:22;8.20;99.90
16283;DHT22;8249;48.708;9.030;2023-04-25T00:43:52;8.20;99.90
16283;DHT22;8249;48.708;9.030;2023-04-25T00:46:20;8.10;99.90
16283;DHT22;8249;48.708;9.030;2023-04-25T00:48:47;8.10;99.90
16283;DHT22;8249;48.708;9.030;2023-04-25T00:51:16;8.20;99.90
16283;DHT22;8249;48.708;9.030;2023-04-25T00:53:45;8.20;99.90
16283;DHT22;8249;48.708;9.030;2023-04-25T00:56:13;8.20;99.90
16283;DHT22;8249;48.708;9.030;2023-04-25T00:58:41;8.20;99.90
16283;DHT22;8249;48.708;9.030;2023-04-25T01:01:10;8.20;99.90
16283;DHT22;8249;48.708;9.030;2023-04-25T01:03:39;8.20;99.90
16283;DHT22;8249;48.708;9.030;2023-04-25T01:06:08;8.20;99.90
16283;DHT22;8249;48.708;9.030;2023-04-25T01:08:37;8.20;99.90
16283;DHT22;8249;48.708;9.030;2023-04-25T01:11:04;8.20;99.90
16283;DHT22;8249;48.708;9.030;2023-04-25T01:13:31;8.20;99.90
16283;DHT22;8249;48.708;9.030;2023-04-25T01:15:59;8.20;99.90
16283;DHT22;8249;48.708;9.030;2023-04-25T01:18:28;8.20;99.90
16283;DHT22;8249;48.708;9.030;2023-04-25T01:20:55;8.20;99.90
16283;DHT22;8249;48.708;9.030;2023-04-25T01:23:23;8.20;99.90
16283;DHT22;8249;48.708;9.030;2023-04-25T01:25:51;8.20;99.90
16283;DHT22;8249;48.708;9.030;2023-04-25T01:28:18;8.10;99.90
16283;DHT22;8249;48.708;9.030;2023-04-25T01:30:46;8.10;99.90
16283;DHT22;8249;48.708;9.030;2023-04-25T01:33:14;8.00;99.90
16283;DHT22;8249;48.708;9.030;2023-04-25T01:35:42;8.00;99.90
16283;DHT22;8249;48.708;9.030;2023-04-25T01:38:11;7.90;99.90
16283;DHT22;8249;48.708;9.030;2023-04-25T01:40:40;7.90;99.90
16283;DHT22;8249;48.708;9.030;2023-04-25T01:43:07;7.80;99.90
16283;DHT22;8249;48.708;9.030;2023-04-25T01:45:37;7.70;99.90
16283;DHT22;8249;48.708;9.030;2023-04-25T01:48:05;7.70;99.90
16283;DHT22;8249;48.708;9.030;2023-04-25T01:50:32;7.60;99.90
16283;DHT22;8249;48.708;9.030;2023-04-25T01:53:00;7.60;99.90
16283;DHT22;8249;48.708;9.030;2023-04-25T01:55:27;7.50;99.90
16283;DHT22;8249;48.708;9.030;2023-04-25T01:58:04;7.50;99.90
16283;DHT22;8249;48.708;9.030;2023-04-25T02:00:53;7.50;99.90
16283;DHT22;8249;48.708;9.030;2023-04-25T02:03:20;7.50;99.90
16283;DHT22;8249;48.708;9.030;2023-04-25T02:05:47;7.50;99.90
16283;DHT22;8249;48.708;9.030;2023-04-25T02:08:15;7.50;99.90
16283;DHT22;8249;48.708;9.030;2023-04-25T02:10:43;7.50;99.90
16283;DHT22;8249;48.708;9.030;2023-04-25T02:13:17;7.50;99.90
16283;DHT22;8249;48.708;9.030;2023-04-25T02:16:06;7.50;99.90
16283;DHT22;8249;48.708;9.030;2023-04-25T02:18:37;7.40;99.90
16283;DHT22;8249;48.708;9.030;2023-04-25T02:21:06;7.40;99.90
16283;DHT22;8249;48.708;9.030;2023-04-25T02:23:33;7.40;99.90
16283;DHT22;8249;48.708;9.030;2023-04-25T02:26:00;7.40;99.90
16283;DHT22;8249;48.708;9.030;2023-04-25T02:28:28;7.40;99.90
16283;DHT22;8249;48.708;9.030;2023-04-25T02:30:55;7.40;99.90
16283;DHT22;8249;48.708;9.030;2023-04-25T02:33:24;7.40;99.90
16283;DHT22;8249;48.708;9.030;2023-04-25T02:35:51;7.40;99.90
16283;DHT22;8249;48.708;9.030;2023-04-25T02:38:21;7.40;99.90
16283;DHT22;8249;48.708;9.030;2023-04-25T02:40:48;7.40;99.90
16283;DHT22;8249;48.708;9.030;2023-04-25T02:43:15;7.40;99.90
16283;DHT22;8249;48.708;9.030;2023-04-25T02:45:43;7.40;99.90
16283;DHT22;8249;48.708;9.030;2023-04-25T02:48:11;7.40;99.90
16283;DHT22;8249;48.708;9.030;2023-04-25T02:50:38;7.40;99.90
16283;DHT22;8249;48.708;9.030;2023-04-25T02:53:05;7.40;99.90
16283;DHT22;8249;48.708;9.030;2023-04-25T02:55:37;7.40;99.90
16283;DHT22;8249;48.708;9.030;2023-04-25T02:58:04;7.30;99.90
16283;DHT22;8249;48.708;9.030;2023-04-25T03:00:46;7.30;99.90
16283;DHT22;8249;48.708;9.030;2023-04-25T03:03:14;7.30;99.90
16283;DHT22;8249;48.708;9.030;2023-04-25T03:05:43;7.40;99.90
16283;DHT22;8249;48.708;9.030;2023-04-25T03:08:11;7.30;99.90
16283;DHT22;8249;48.708;9.030;2023-04-25T03:10:38;7.30;99.90
16283;DHT22;8249;48.708;9.030;2023-04-25T03:13:08;7.40;99.90
16283;DHT22;8249;48.708;9.030;2023-04-25T03:15:36;7.30;99.90
16283;DHT22;8249;48.708;9.030;2023-04-25T03:18:05;7.40;99.90
16283;DHT22;8249;48.708;9.030;2023-04-25T03:20:32;7.40;99.90
16283;DHT22;8249;48.708;9.030;2023-04-25T03:22:59;7.40;99.90
16283;DHT22;8249;48.708;9.030;2023-04-25T03:25:27;7.40;99.90
16283;DHT22;8249;48.708;9.030;2023-04-25T03:27:54;7.40;99.90
16283;DHT22;8249;48.708;9.030;2023-04-25T03:30:21;7.40;99.90
16283;DHT22;8249;48.708;9.030;2023-04-25T03:32:48;7.40;99.90
16283;DHT22;8249;48.708;9.030;2023-04-25T03:35:18;7.40;99.90
16283;DHT22;8249;48.708;9.030;2023-04-25T03:37:45;7.30;99.90
16283;DHT22;8249;48.708;9.030;2023-04-25T03:40:17;7.30;99.90
16283;DHT22;8249;48.708;9.030;2023-04-25T03:43:08;7.20;99.90
16283;DHT22;8249;48.708;9.030;2023-04-25T03:45:36;7.20;99.90
16283;DHT22;8249;48.708;9.030;2023-04-25T03:48:03;7.10;99.90
16283;DHT22;8249;48.708;9.030;2023-04-25T03:50:32;7.20;99.90
16283;DHT22;8249;48.708;9.030;2023-04-25T03:52:59;7.20;99.90
16283;DHT22;8249;48.708;9.030;2023-04-25T03:55:29;7.20;99.90
16283;DHT22;8249;48.708;9.030;2023-04-25T03:57:57;7.20;99.90
16283;DHT22;8249;48.708;9.030;2023-04-25T04:00:24;7.30;99.90
16283;DHT22;8249;48.708;9.030;2023-04-25T04:02:52;7.30;99.90
16283;DHT22;8249;48.708;9.030;2023-04-25T04:05:19;7.30;99.90
16283;DHT22;8249;48.708;9.030;2023-04-25T04:07:53;7.30;99.90
16283;DHT22;8249;48.708;9.030;2023-04-25T04:10:21;7.30;99.90
16283;DHT22;8249;48.708;9.030;2023-04-25T04:12:48;7.30;99.90
16283;DHT22;8249;48.708;9.030;2023-04-25T04:15:16;7.30;99.90
16283;DHT22;8249;48.708;9.030;2023-04-25T04:17:45;7.30;99.90
16283;DHT22;8249;48.708;9.030;2023-04-25T04:20:12;7.20;99.90
16283;DHT22;8249;48.708;9.030;2023-04-25T04:22:40;7.20;99.90
16283;DHT22;8249;48.708;9.030;2023-04-25T04:25:11;7.10;99.90
16283;DHT22;8249;48.708;9.030;2023-04-25T04:27:57;7.10;99.90
16283;DHT22;8249;48.708;9.030;2023-04-25T04:30:34;7.00;99.90
16283;DHT22;8249;48.708;9.030;2023-04-25T04:33:06;7.00;99.90
16283;DHT22;8249;48.708;9.030;2023-04-25T04:35:33;7.10;99.90
16283;DHT22;8249;48.708;9.030;2023-04-25T04:38:00;7.10;99.90
16283;DHT22;8249;48.708;9.030;2023-04-25T04:40:33;7.10;99.90
16283;DHT22;8249;48.708;9.030;2023-04-25T04:43:22;7.10;99.90
16283;DHT22;8249;48.708;9.030;2023-04-25T04:46:09;7.00;99.90
16283;DHT22;8249;48.708;9.030;2023-04-25T04:48:49;7.00;99.90
16283;DHT22;8249;48.708;9.030;2023-04-25T04:51:52;7.10;99.90
16283;DHT22;8249;48.708;9.030;2023-04-25T04:54:36;7.10;99.90
16283;DHT22;8249;48.708;9.030;2023-04-25T04:57:14;7.20;99.90
16283;DHT22;8249;48.708;9.030;2023-04-25T04:59:57;7.20;99.90
16283;DHT22;8249;48.708;9.030;2023-04-25T05:03:02;7.30;99.90
16283;DHT22;8249;48.708;9.030;2023-04-25T05:05:56;7.30;99.90
16283;DHT22;8249;48.708;9.030;2023-04-25T05:08:37;7.40;99.90
16283;DHT22;8249;48.708;9.030;2023-04-25T05:11:23;7.50;99.90
16283;DHT22;8249;48.708;9.030;2023-04-25T05:14:12;7.60;99.90
16283;DHT22;8249;48.708;9.030;2023-04-25T05:16:45;7.60;99.90
16283;DHT22;8249;48.708;9.030;2023-04-25T05:19:30;7.60;99.90
16283;DHT22;8249;48.708;9.030;2023-04-25T05:22:13;7.60;99.90
16283;DHT22;8249;48.708;9.030;2023-04-25T05:24:54;7.60;99.90
16283;DHT22;8249;48.708;9.030;2023-04-25T05:27:40;7.60;99.90
16283;DHT22;8249;48.708;9.030;2023-04-25T05:30:28;7.50;99.90
16283;DHT22;8249;48.708;9.030;2023-04-25T05:33:06;7.60;99.90
16283;DHT22;8249;48.708;9.030;2023-04-25T05:35:33;7.60;99.90
16283;DHT22;8249;48.708;9.030;2023-04-25T05:38:00;7.60;99.90
16283;DHT22;8249;48.708;9.030;2023-04-25T05:40:50;7.60;99.90
16283;DHT22;8249;48.708;9.030;2023-04-25T05:43:52;7.70;99.90
16283;DHT22;8249;48.708;9.030;2023-04-25T05:46:39;7.70;99.90
16283;DHT22;8249;48.708;9.030;2023-04-25T05:49:14;7.80;99.90
16283;DHT22;8249;48.708;9.030;2023-04-25T05:52:03;7.80;99.90
16283;DHT22;8249;48.708;9.030;2023-04-25T05:54:46;7.80;99.90
16283;DHT22;8249;48.708;9.030;2023-04-25T05:57:19;7.80;99.90
16283;DHT22;8249;48.708;9.030;2023-04-25T05:59:47;7.80;99.90
16283;DHT22;8249;48.708;9.030;2023-04-25T06:02:15;7.80;99.90
16283;DHT22;8249;48.708;9.030;2023-04-25T06:04:43;7.80;99.90
16283;DHT22;8249;48.708;9.030;2023-04-25T06:07:10;7.80;99.90
16283;DHT22;8249;48.708;9.030;2023-04-25T06:09:37;7.80;99.90
16283;DHT22;8249;48.708;9.030;2023-04-25T06:12:05;7.90;99.90
16283;DHT22;8249;48.708;9.030;2023-04-25T06:14:32;7.90;99.90
16283;DHT22;8249;48.708;9.030;2023-04-25T06:16:59;8.00;99.90
16283;DHT22;8249;48.708;9.030;2023-04-25T06:19:33;8.00;99.90
16283;DHT22;8249;48.708;9.030;2023-04-25T06:22:00;8.00;99.90
16283;DHT22;8249;48.708;9.030;2023-04-25T06:24:27;8.00;99.90
16283;DHT22;8249;48.708;9.030;2023-04-25T06:26:55;8.00;99.90
16283;DHT22;8249;48.708;9.030;2023-04-25T06:29:22;8.00;99.90
16283;DHT22;8249;48.708;9.030;2023-04-25T06:31:49;8.10;99.90
16283;DHT22;8249;48.708;9.030;2023-04-25T06:34:16;8.00;99.90
16283;DHT22;8249;48.708;9.030;2023-04-25T06:36:45;8.00;99.90
16283;DHT22;8249;48.708;9.030;2023-04-25T06:39:15;8.00;99.90
16283;DHT22;8249;48.708;9.030;2023-04-25T06:41:42;8.00;99.90
16283;DHT22;8249;48.708;9.030;2023-04-25T06:44:28;8.00;99.90
16283;DHT22;8249;48.708;9.030;2023-04-25T06:46:57;7.90;99.90
16283;DHT22;8249;48.708;9.030;2023-04-25T06:49:23;7.90;99.90
16283;DHT22;8249;48.708;9.030;2023-04-25T06:51:52;7.90;99.90
16283;DHT22;8249;48.708;9.030;2023-04-25T06:54:19;7.80;99.90
16283;DHT22;8249;48.708;9.030;2023-04-25T06:56:55;7.80;99.90
16283;DHT22;8249;48.708;9.030;2023-04-25T06:59:23;7.80;99.90
16283;DHT22;8249;48.708;9.030;2023-04-25T07:01:51;7.70;99.90
16283;DHT22;8249;48.708;9.030;2023-04-25T07:04:21;7.70;99.90
16283;DHT22;8249;48.708;9.030;2023-04-25T07:06:53;7.70;99.90
16283;DHT22;8249;48.708;9.030;2023-04-25T07:09:26;7.70;99.90
16283;DHT22;8249;48.708;9.030;2023-04-25T07:11:54;7.70;99.90
16283;DHT22;8249;48.708;9.030;2023-04-25T07:14:22;7.70;99.90
16283;DHT22;8249;48.708;9.030;2023-04-25T07:16:49;7.70;99.90
16283;DHT22;8249;48.708;9.030;2023-04-25T07:19:16;7.70;99.90
16283;DHT22;8249;48.708;9.030;2023-04-25T07:21:43;7.70;99.90
16283;DHT22;8249;48.708;9.030;2023-04-25T07:24:12;7.60;99.90
16283;DHT22;8249;48.708;9.030;2023-04-25T07:26:44;7.70;99.90
16283;DHT22;8249;48.708;9.030;2023-04-25T07:29:21;7.60;99.90
16283;DHT22;8249;48.708;9.030;2023-04-25T07:31:48;7.60;99.90
16283;DHT22;8249;48.708;9.030;2023-04-25T07:34:15;7.60;99.90
16283;DHT22;8249;48.708;9.030;2023-04-25T07:36:42;7.70;99.90
16283;DHT22;8249;48.708;9.030;2023-04-25T07:39:09;7.70;99.90
16283;DHT22;8249;48.708;9.030;2023-04-25T07:41:39;7.70;99.90
16283;DHT22;8249;48.708;9.030;2023-04-25T07:44:08;7.70;99.90
16283;DHT22;8249;48.708;9.030;2023-04-25T07:46:35;7.70;99.90
16283;DHT22;8249;48.708;9.030;2023-04-25T07:49:03;7.60;99.90
16283;DHT22;8249;48.708;9.030;2023-04-25T07:51:30;7.60;99.90
16283;DHT22;8249;48.708;9.030;2023-04-25T07:54:01;7.70;99.90
16283;DHT22;8249;48.708;9.030;2023-04-25T07:56:28;7.60;99.90
16283;DHT22;8249;48.708;9.030;2023-04-25T07:58:57;7.70;99.90
16283;DHT22;8249;48.708;9.030;2023-04-25T08:01:24;7.80;99.90
16283;DHT22;8249;48.708;9.030;2023-04-25T08:03:58;7.80;99.90
16283;DHT22;8249;48.708;9.030;2023-04-25T08:06:34;7.90;99.90
16283;DHT22;8249;48.708;9.030;2023-04-25T08:09:12;7.80;99.90
16283;DHT22;8249;48.708;9.030;2023-04-25T08:11:41;7.80;99.90
16283;DHT22;8249;48.708;9.030;2023-04-25T08:14:12;7.70;99.90
16283;DHT22;8249;48.708;9.030;2023-04-25T08:16:41;7.70;99.90
16283;DHT22;8249;48.708;9.030;2023-04-25T08:19:09;7.80;99.90
16283;DHT22;8249;48.708;9.030;2023-04-25T08:21:36;7.70;99.90
16283;DHT22;8249;48.708;9.030;2023-04-25T08:24:08;7.70;99.90
16283;DHT22;8249;48.708;9.030;2023-04-25T08:26:37;7.70;99.90
16283;DHT22;8249;48.708;9.030;2023-04-25T08:29:06;7.80;99.90
16283;DHT22;8249;48.708;9.030;2023-04-25T08:31:37;7.70;99.90
16283;DHT22;8249;48.708;9.030;2023-04-25T08:34:05;7.80;99.90
16283;DHT22;8249;48.708;9.030;2023-04-25T08:36:37;7.70;99.90
16283;DHT22;8249;48.708;9.030;2023-04-25T08:39:05;7.70;99.90
16283;DHT22;8249;48.708;9.030;2023-04-25T08:41:40;7.70;99.90
16283;DHT22;8249;48.708;9.030;2023-04-25T08:44:10;7.80;99.90
16283;DHT22;8249;48.708;9.030;2023-04-25T08:46:39;7.90;99.90
16283;DHT22;8249;48.708;9.030;2023-04-25T08:49:15;7.90;99.90
16283;DHT22;8249;48.708;9.030;2023-04-25T08:51:45;7.90;99.90
16283;DHT22;8249;48.708;9.030;2023-04-25T08:54:14;7.90;99.90
16283;DHT22;8249;48.708;9.030;2023-04-25T08:56:44;7.90;99.90
16283;DHT22;8249;48.708;9.030;2023-04-25T08:59:12;7.90;99.90
16283;DHT22;8249;48.708;9.030;2023-04-25T09:01:43;7.90;99.90
16283;DHT22;8249;48.708;9.030;2023-04-25T09:04:12;8.00;99.90
16283;DHT22;8249;48.708;9.030;2023-04-25T09:06:39;7.90;99.90
16283;DHT22;8249;48.708;9.030;2023-04-25T09:09:08;7.90;99.90
16283;DHT22;8249;48.708;9.030;2023-04-25T09:11:36;7.90;99.90
16283;DHT22;8249;48.708;9.030;2023-04-25T09:14:12;7.80;99.90
16283;DHT22;8249;48.708;9.030;2023-04-25T09:17:07;7.80;99.90
16283;DHT22;8249;48.708;9.030;2023-04-25T09:19:37;7.80;99.90
16283;DHT22;8249;48.708;9.030;2023-04-25T09:22:08;7.50;99.90
16283;DHT22;8249;48.708;9.030;2023-04-25T09:24:38;7.40;99.90
16283;DHT22;8249;48.708;9.030;2023-04-25T09:27:06;7.30;99.90
16283;DHT22;8249;48.708;9.030;2023-04-25T09:29:34;7.20;99.90
16283;DHT22;8249;48.708;9.030;2023-04-25T09:32:18;7.10;99.90
16283;DHT22;8249;48.708;9.030;2023-04-25T09:34:48;6.90;99.90
16283;DHT22;8249;48.708;9.030;2023-04-25T09:37:19;6.80;99.90
16283;DHT22;8249;48.708;9.030;2023-04-25T09:40:10;6.80;99.90
16283;DHT22;8249;48.708;9.030;2023-04-25T09:42:50;6.80;99.90
16283;DHT22;8249;48.708;9.030;2023-04-25T09:45:18;6.70;99.90
16283;DHT22;8249;48.708;9.030;2023-04-25T09:47:46;6.70;99.90
16283;DHT22;8249;48.708;9.030;2023-04-25T09:50:17;6.70;99.90
16283;DHT22;8249;48.708;9.030;2023-04-25T09:53:02;6.70;99.90
16283;DHT22;8249;48.708;9.030;2023-04-25T09:55:34;6.60;99.90
16283;DHT22;8249;48.708;9.030;2023-04-25T09:58:05;6.60;99.90
16283;DHT22;8249;48.708;9.030;2023-04-25T10:00:33;6.60;99.90
16283;DHT22;8249;48.708;9.030;2023-04-25T10:03:16;6.70;99.90
16283;DHT22;8249;48.708;9.030;2023-04-25T10:06:19;6.70;99.90
16283;DHT22;8249;48.708;9.030;2023-04-25T10:08:51;6.70;99.90
16283;DHT22;8249;48.708;9.030;2023-04-25T10:11:21;6.70;99.90
16283;DHT22;8249;48.708;9.030;2023-04-25T10:13:50;6.70;99.90
16283;DHT22;8249;48.708;9.030;2023-04-25T10:16:18;6.70;99.90
16283;DHT22;8249;48.708;9.030;2023-04-25T10:18:46;6.70;99.90
16283;DHT22;8249;48.708;9.030;2023-04-25T10:21:15;6.70;99.90
16283;DHT22;8249;48.708;9.030;2023-04-25T10:23:43;6.70;99.90
16283;DHT22;8249;48.708;9.030;2023-04-25T10:26:11;6.70;99.90
16283;DHT22;8249;48.708;9.030;2023-04-25T10:28:54;6.80;99.90
16283;DHT22;8249;48.708;9.030;2023-04-25T10:31:21;6.80;99.90
16283;DHT22;8249;48.708;9.030;2023-04-25T10:33:50;6.90;99.90
16283;DHT22;8249;48.708;9.030;2023-04-25T10:36:18;7.00;99.90
16283;DHT22;8249;48.708;9.030;2023-04-25T10:38:47;7.10;99.90
16283;DHT22;8249;48.708;9.030;2023-04-25T10:41:17;7.00;99.90
16283;DHT22;8249;48.708;9.030;2023-04-25T10:43:45;7.10;99.90
16283;DHT22;8249;48.708;9.030;2023-04-25T10:46:14;7.10;99.90
16283;DHT22;8249;48.708;9.030;2023-04-25T10:48:50;7.10;99.90
16283;DHT22;8249;48.708;9.030;2023-04-25T10:51:22;7.10;99.90
16283;DHT22;8249;48.708;9.030;2023-04-25T10:53:57;7.10;99.90
16283;DHT22;8249;48.708;9.030;2023-04-25T10:56:26;7.20;99.90
16283;DHT22;8249;48.708;9.030;2023-04-25T10:59:06;7.20;99.90
16283;DHT22;8249;48.708;9.030;2023-04-25T11:01:38;7.30;99.90
16283;DHT22;8249;48.708;9.030;2023-04-25T11:04:19;7.30;99.90
16283;DHT22;8249;48.708;9.030;2023-04-25T11:07:03;7.40;99.90
16283;DHT22;8249;48.708;9.030;2023-04-25T11:09:33;7.40;99.90
16283;DHT22;8249;48.708;9.030;2023-04-25T11:12:00;7.50;99.90
16283;DHT22;8249;48.708;9.030;2023-04-25T11:14:27;7.60;99.90
16283;DHT22;8249;48.708;9.030;2023-04-25T11:16:55;7.70;99.90
16283;DHT22;8249;48.708;9.030;2023-04-25T11:19:24;7.40;99.90
16283;DHT22;8249;48.708;9.030;2023-04-25T11:21:55;7.40;99.90
16283;DHT22;8249;48.708;9.030;2023-04-25T11:24:26;7.50;99.90
16283;DHT22;8249;48.708;9.030;2023-04-25T11:26:53;7.60;99.90
16283;DHT22;8249;48.708;9.030;2023-04-25T11:29:22;7.60;99.90
16283;DHT22;8249;48.708;9.030;2023-04-25T11:31:49;7.80;99.90
16283;DHT22;8249;48.708;9.030;2023-04-25T11:34:17;8.00;99.90
16283;DHT22;8249;48.708;9.030;2023-04-25T11:36:46;8.30;99.90
16283;DHT22;8249;48.708;9.030;2023-04-25T11:39:13;8.60;99.90
16283;DHT22;8249;48.708;9.030;2023-04-25T11:41:41;8.70;99.90
16283;DHT22;8249;48.708;9.030;2023-04-25T11:44:08;8.90;99.90
16283;DHT22;8249;48.708;9.030;2023-04-25T11:46:35;9.00;99.90
16283;DHT22;8249;48.708;9.030;2023-04-25T11:49:02;9.00;99.90
16283;DHT22;8249;48.708;9.030;2023-04-25T11:51:29;9.00;99.90
16283;DHT22;8249;48.708;9.030;2023-04-25T11:53:58;9.10;99.90
16283;DHT22;8249;48.708;9.030;2023-04-25T11:56:25;9.10;99.90
16283;DHT22;8249;48.708;9.030;2023-04-25T11:58:57;9.10;99.90
16283;DHT22;8249;48.708;9.030;2023-04-25T12:01:28;9.00;99.90
16283;DHT22;8249;48.708;9.030;2023-04-25T12:03:56;9.00;99.90
16283;DHT22;8249;48.708;9.030;2023-04-25T12:06:26;9.00;99.90
16283;DHT22;8249;48.708;9.030;2023-04-25T12:09:02;9.00;99.90
16283;DHT22;8249;48.708;9.030;2023-04-25T12:11:30;9.00;99.90
16283;DHT22;8249;48.708;9.030;2023-04-25T12:14:02;9.20;99.90
16283;DHT22;8249;48.708;9.030;2023-04-25T12:16:29;9.40;99.90
16283;DHT22;8249;48.708;9.030;2023-04-25T12:18:56;9.40;99.90
16283;DHT22;8249;48.708;9.030;2023-04-25T12:21:28;9.40;99.90
16283;DHT22;8249;48.708;9.030;2023-04-25T12:23:56;9.40;99.90
16283;DHT22;8249;48.708;9.030;2023-04-25T12:26:24;9.40;99.90
16283;DHT22;8249;48.708;9.030;2023-04-25T12:28:52;9.40;99.90
16283;DHT22;8249;48.708;9.030;2023-04-25T12:31:19;9.40;99.90
16283;DHT22;8249;48.708;9.030;2023-04-25T12:33:45;9.40;99.90
16283;DHT22;8249;48.708;9.030;2023-04-25T12:36:13;9.40;99.90
16283;DHT22;8249;48.708;9.030;2023-04-25T12:38:42;9.40;99.90
16283;DHT22;8249;48.708;9.030;2023-04-25T12:41:09;9.50;99.90
16283;DHT22;8249;48.708;9.030;2023-04-25T12:43:38;9.30;99.90
16283;DHT22;8249;48.708;9.030;2023-04-25T12:46:05;9.10;99.90
16283;DHT22;8249;48.708;9.030;2023-04-25T12:48:32;9.10;99.90
16283;DHT22;8249;48.708;9.030;2023-04-25T12:50:59;9.00;99.90
16283;DHT22;8249;48.708;9.030;2023-04-25T12:53:26;9.00;99.90
16283;DHT22;8249;48.708;9.030;2023-04-25T12:55:52;8.90;99.90
16283;DHT22;8249;48.708;9.030;2023-04-25T12:58:19;9.00;99.90
16283;DHT22;8249;48.708;9.030;2023-04-25T13:00:48;8.90;99.90
16283;DHT22;8249;48.708;9.030;2023-04-25T13:03:15;9.00;99.90
16283;DHT22;8249;48.708;9.030;2023-04-25T13:05:42;9.10;99.90
16283;DHT22;8249;48.708;9.030;2023-04-25T13:08:09;9.20;99.90
16283;DHT22;8249;48.708;9.030;2023-04-25T13:10:37;9.40;99.90
16283;DHT22;8249;48.708;9.030;2023-04-25T13:13:04;9.50;99.90
16283;DHT22;8249;48.708;9.030;2023-04-25T13:15:32;9.60;99.90
16283;DHT22;8249;48.708;9.030;2023-04-25T13:18:00;9.60;99.90
16283;DHT22;8249;48.708;9.030;2023-04-25T13:20:28;10.10;99.90
16283;DHT22;8249;48.708;9.030;2023-04-25T13:22:55;10.00;99.90
16283;DHT22;8249;48.708;9.030;2023-04-25T13:25:22;10.10;99.90
16283;DHT22;8249;48.708;9.030;2023-04-25T13:27:49;10.10;99.90
16283;DHT22;8249;48.708;9.030;2023-04-25T13:30:16;10.20;99.90
16283;DHT22;8249;48.708;9.030;2023-04-25T13:32:43;10.00;99.90
16283;DHT22;8249;48.708;9.030;2023-04-25T13:35:12;10.30;99.90
16283;DHT22;8249;48.708;9.030;2023-04-25T13:37:39;10.40;99.90
16283;DHT22;8249;48.708;9.030;2023-04-25T13:40:09;10.80;99.90
16283;DHT22;8249;48.708;9.030;2023-04-25T13:42:37;10.80;99.90
16283;DHT22;8249;48.708;9.030;2023-04-25T13:45:05;11.00;99.90
16283;DHT22;8249;48.708;9.030;2023-04-25T13:47:32;11.10;99.90
16283;DHT22;8249;48.708;9.030;2023-04-25T13:49:59;11.30;99.90
16283;DHT22;8249;48.708;9.030;2023-04-25T13:52:30;11.20;99.90
16283;DHT22;8249;48.708;9.030;2023-04-25T13:54:57;11.10;99.90
16283;DHT22;8249;48.708;9.030;2023-04-25T13:57:24;10.90;99.90
16283;DHT22;8249;48.708;9.030;2023-04-25T13:59:51;10.90;99.90
16283;DHT22;8249;48.708;9.030;2023-04-25T14:02:18;10.90;99.90
16283;DHT22;8249;48.708;9.030;2023-04-25T14:04:45;10.90;99.90
16283;DHT22;8249;48.708;9.030;2023-04-25T14:07:12;11.10;99.90
16283;DHT22;8249;48.708;9.030;2023-04-25T14:09:43;11.60;99.90
16283;DHT22;8249;48.708;9.030;2023-04-25T14:12:10;12.30;99.90
16283;DHT22;8249;48.708;9.030;2023-04-25T14:14:37;13.30;99.90
16283;DHT22;8249;48.708;9.030;2023-04-25T14:17:04;13.30;99.90
16283;DHT22;8249;48.708;9.030;2023-04-25T14:19:32;13.10;99.90
16283;DHT22;8249;48.708;9.030;2023-04-25T14:21:59;12.50;99.90
16283;DHT22;8249;48.708;9.030;2023-04-25T14:24:26;12.40;99.90
16283;DHT22;8249;48.708;9.030;2023-04-25T14:26:54;12.00;99.90
16283;DHT22;8249;48.708;9.030;2023-04-25T14:29:22;12.10;99.90
16283;DHT22;8249;48.708;9.030;2023-04-25T14:31:49;12.10;99.90
16283;DHT22;8249;48.708;9.030;2023-04-25T14:34:16;11.90;99.90
16283;DHT22;8249;48.708;9.030;2023-04-25T14:36:43;11.90;99.90
16283;DHT22;8249;48.708;9.030;2023-04-25T14:39:10;11.60;99.90
16283;DHT22;8249;48.708;9.030;2023-04-25T14:41:38;11.50;99.90
16283;DHT22;8249;48.708;9.030;2023-04-25T14:44:06;11.10;99.90
16283;DHT22;8249;48.708;9.030;2023-04-25T14:46:33;10.90;99.90
16283;DHT22;8249;48.708;9.030;2023-04-25T14:49:01;10.90;99.90
16283;DHT22;8249;48.708;9.030;2023-04-25T14:51:28;10.90;99.90
16283;DHT22;8249;48.708;9.030;2023-04-25T14:53:56;11.50;99.90
16283;DHT22;8249;48.708;9.030;2023-04-25T14:56:23;12.80;99.90
16283;DHT22;8249;48.708;9.030;2023-04-25T14:58:51;13.40;99.90
16283;DHT22;8249;48.708;9.030;2023-04-25T15:01:19;13.50;99.90
16283;DHT22;8249;48.708;9.030;2023-04-25T15:03:47;13.30;99.90
16283;DHT22;8249;48.708;9.030;2023-04-25T15:06:14;13.10;99.90
16283;DHT22;8249;48.708;9.030;2023-04-25T15:08:41;13.30;99.90
16283;DHT22;8249;48.708;9.030;2023-04-25T15:11:08;13.70;99.90
16283;DHT22;8249;48.708;9.030;2023-04-25T15:13:36;14.20;99.90
16283;DHT22;8249;48.708;9.030;2023-04-25T15:16:04;14.70;99.90
16283;DHT22;8249;48.708;9.030;2023-04-25T15:18:33;14.40;99.90
16283;DHT22;8249;48.708;9.030;2023-04-25T15:21:00;14.00;99.90
16283;DHT22;8249;48.708;9.030;2023-04-25T15:23:27;13.70;99.90
16283;DHT22;8249;48.708;9.030;2023-04-25T15:25:54;13.30;99.90
16283;DHT22;8249;48.708;9.030;2023-04-25T15:28:21;13.20;99.90
16283;DHT22;8249;48.708;9.030;2023-04-25T15:30:48;13.40;99.90
16283;DHT22;8249;48.708;9.030;2023-04-25T15:33:16;13.40;99.90
16283;DHT22;8249;48.708;9.030;2023-04-25T15:35:44;13.30;99.90
16283;DHT22;8249;48.708;9.030;2023-04-25T15:38:11;13.30;99.90
16283;DHT22;8249;48.708;9.030;2023-04-25T15:40:38;13.00;99.90
16283;DHT22;8249;48.708;9.030;2023-04-25T15:43:06;12.80;99.90
16283;DHT22;8249;48.708;9.030;2023-04-25T15:45:40;12.70;99.90
16283;DHT22;8249;48.708;9.030;2023-04-25T15:48:07;12.70;99.90
16283;DHT22;8249;48.708;9.030;2023-04-25T15:50:34;12.70;99.90
16283;DHT22;8249;48.708;9.030;2023-04-25T15:53:03;12.50;99.90
16283;DHT22;8249;48.708;9.030;2023-04-25T15:55:30;12.20;99.90
16283;DHT22;8249;48.708;9.030;2023-04-25T15:57:58;12.00;99.90
16283;DHT22;8249;48.708;9.030;2023-04-25T16:00:26;11.90;99.90
16283;DHT22;8249;48.708;9.030;2023-04-25T16:02:53;11.60;99.90
16283;DHT22;8249;48.708;9.030;2023-04-25T16:05:20;11.30;99.90
16283;DHT22;8249;48.708;9.030;2023-04-25T16:07:49;11.20;99.90
16283;DHT22;8249;48.708;9.030;2023-04-25T16:10:19;11.20;99.90
16283;DHT22;8249;48.708;9.030;2023-04-25T16:12:47;11.20;99.90
16283;DHT22;8249;48.708;9.030;2023-04-25T16:15:15;11.20;99.90
16283;DHT22;8249;48.708;9.030;2023-04-25T16:17:42;11.10;99.90
16283;DHT22;8249;48.708;9.030;2023-04-25T16:20:10;11.00;99.90